Terminal Aerodrome Forecast
Issued by NWS

Current Version | Previous Version | Text Only | Print | Product List | Glossary On
Versions: 1 2 3 4 5 6 7 8 9 10 11 12 13 14 15 16
000
FTUS45 KABQ 011700 RRA
TAFLVS
TAF
KLVS 011741Z 0118/0218 21010G18KT P6SM SKC
     FM012000 23018G28KT P6SM FEW080
     FM020200 26011KT P6SM BKN090
     FM020600 31011KT P6SM SCT090
     FM020900 35011KT P6SM SKC=

USA.gov is the U.S. government's official web portal to all federal, state and local government web resources and services.